sensor_id;sensor_type;location;lat;lon;timestamp;P1;durP1;ratioP1;P2;durP2;ratioP2
9773;SDS011;4926;42.670;23.316;2022-10-26T00:02:28;14.75;;;5.30;;
9773;SDS011;4926;42.670;23.316;2022-10-26T00:04:55;8.43;;;4.35;;
9773;SDS011;4926;42.670;23.316;2022-10-26T00:07:22;7.28;;;4.78;;
9773;SDS011;4926;42.670;23.316;2022-10-26T00:09:49;8.82;;;4.90;;
9773;SDS011;4926;42.670;23.316;2022-10-26T00:12:16;11.50;;;5.03;;
9773;SDS011;4926;42.670;23.316;2022-10-26T00:14:43;8.85;;;4.65;;
9773;SDS011;4926;42.670;23.316;2022-10-26T00:17:09;6.68;;;4.10;;
9773;SDS011;4926;42.670;23.316;2022-10-26T00:19:37;11.15;;;4.68;;
9773;SDS011;4926;42.670;23.316;2022-10-26T00:22:05;8.38;;;4.18;;
9773;SDS011;4926;42.670;23.316;2022-10-26T00:24:32;8.27;;;4.60;;
9773;SDS011;4926;42.670;23.316;2022-10-26T00:26:59;5.70;;;3.95;;
9773;SDS011;4926;42.670;23.316;2022-10-26T00:29:27;7.25;;;4.25;;
9773;SDS011;4926;42.670;23.316;2022-10-26T00:31:54;13.07;;;4.57;;
9773;SDS011;4926;42.670;23.316;2022-10-26T00:34:24;5.60;;;3.70;;
9773;SDS011;4926;42.670;23.316;2022-10-26T00:36:52;12.90;;;4.38;;
9773;SDS011;4926;42.670;23.316;2022-10-26T00:39:19;8.38;;;4.45;;
9773;SDS011;4926;42.670;23.316;2022-10-26T00:41:45;8.13;;;3.95;;
9773;SDS011;4926;42.670;23.316;2022-10-26T00:47:17;10.48;;;4.13;;
9773;SDS011;4926;42.670;23.316;2022-10-26T00:49:48;9.68;;;4.32;;
9773;SDS011;4926;42.670;23.316;2022-10-26T00:52:21;6.60;;;4.40;;
9773;SDS011;4926;42.670;23.316;2022-10-26T00:54:49;11.35;;;4.13;;
9773;SDS011;4926;42.670;23.316;2022-10-26T00:57:18;8.30;;;3.67;;
9773;SDS011;4926;42.670;23.316;2022-10-26T00:59:45;7.78;;;3.80;;
9773;SDS011;4926;42.670;23.316;2022-10-26T01:02:12;10.05;;;4.38;;
9773;SDS011;4926;42.670;23.316;2022-10-26T01:04:39;8.10;;;3.90;;
9773;SDS011;4926;42.670;23.316;2022-10-26T01:07:06;10.90;;;4.50;;
9773;SDS011;4926;42.670;23.316;2022-10-26T01:09:38;8.27;;;4.15;;
9773;SDS011;4926;42.670;23.316;2022-10-26T01:12:05;6.35;;;3.95;;
9773;SDS011;4926;42.670;23.316;2022-10-26T01:14:32;8.07;;;4.10;;
9773;SDS011;4926;42.670;23.316;2022-10-26T01:17:01;5.72;;;4.03;;
9773;SDS011;4926;42.670;23.316;2022-10-26T01:20:08;9.40;;;4.18;;
9773;SDS011;4926;42.670;23.316;2022-10-26T01:23:01;7.13;;;4.00;;
9773;SDS011;4926;42.670;23.316;2022-10-26T01:28:36;6.88;;;4.10;;
9773;SDS011;4926;42.670;23.316;2022-10-26T01:31:15;9.77;;;4.22;;
9773;SDS011;4926;42.670;23.316;2022-10-26T01:33:49;5.18;;;4.05;;
9773;SDS011;4926;42.670;23.316;2022-10-26T01:36:24;7.30;;;4.53;;
9773;SDS011;4926;42.670;23.316;2022-10-26T01:38:59;8.43;;;4.45;;
9773;SDS011;4926;42.670;23.316;2022-10-26T01:41:32;8.35;;;4.20;;
9773;SDS011;4926;42.670;23.316;2022-10-26T01:44:05;7.70;;;4.25;;
9773;SDS011;4926;42.670;23.316;2022-10-26T01:46:40;7.05;;;4.10;;
9773;SDS011;4926;42.670;23.316;2022-10-26T01:49:10;9.57;;;4.45;;
9773;SDS011;4926;42.670;23.316;2022-10-26T01:51:39;5.10;;;3.35;;
9773;SDS011;4926;42.670;23.316;2022-10-26T01:54:08;5.25;;;3.88;;
9773;SDS011;4926;42.670;23.316;2022-10-26T01:56:35;7.30;;;3.97;;
9773;SDS011;4926;42.670;23.316;2022-10-26T01:59:12;6.75;;;3.97;;
9773;SDS011;4926;42.670;23.316;2022-10-26T02:02:05;7.43;;;3.80;;
9773;SDS011;4926;42.670;23.316;2022-10-26T02:04:57;5.80;;;3.78;;
9773;SDS011;4926;42.670;23.316;2022-10-26T02:07:47;7.07;;;4.15;;
9773;SDS011;4926;42.670;23.316;2022-10-26T02:10:24;7.82;;;4.90;;
9773;SDS011;4926;42.670;23.316;2022-10-26T02:12:58;6.18;;;3.85;;
9773;SDS011;4926;42.670;23.316;2022-10-26T02:15:35;5.82;;;4.28;;
9773;SDS011;4926;42.670;23.316;2022-10-26T02:18:15;5.50;;;3.85;;
9773;SDS011;4926;42.670;23.316;2022-10-26T02:20:52;6.78;;;4.47;;
9773;SDS011;4926;42.670;23.316;2022-10-26T02:23:24;7.35;;;4.03;;
9773;SDS011;4926;42.670;23.316;2022-10-26T02:25:54;6.75;;;4.20;;
9773;SDS011;4926;42.670;23.316;2022-10-26T02:28:23;11.48;;;4.53;;
9773;SDS011;4926;42.670;23.316;2022-10-26T02:31:03;6.85;;;4.35;;
9773;SDS011;4926;42.670;23.316;2022-10-26T02:33:34;7.47;;;4.40;;
9773;SDS011;4926;42.670;23.316;2022-10-26T02:36:06;6.78;;;4.35;;
9773;SDS011;4926;42.670;23.316;2022-10-26T02:38:36;8.85;;;4.32;;
9773;SDS011;4926;42.670;23.316;2022-10-26T02:41:06;8.43;;;4.40;;
9773;SDS011;4926;42.670;23.316;2022-10-26T02:43:36;9.60;;;4.72;;
9773;SDS011;4926;42.670;23.316;2022-10-26T02:46:10;7.45;;;4.40;;
9773;SDS011;4926;42.670;23.316;2022-10-26T02:48:43;8.25;;;4.45;;
9773;SDS011;4926;42.670;23.316;2022-10-26T02:51:10;7.82;;;4.72;;
9773;SDS011;4926;42.670;23.316;2022-10-26T02:53:43;9.18;;;4.95;;
9773;SDS011;4926;42.670;23.316;2022-10-26T02:56:16;8.27;;;4.85;;
9773;SDS011;4926;42.670;23.316;2022-10-26T02:58:46;4.75;;;4.22;;
9773;SDS011;4926;42.670;23.316;2022-10-26T03:01:18;8.55;;;4.68;;
9773;SDS011;4926;42.670;23.316;2022-10-26T03:03:47;9.90;;;5.50;;
9773;SDS011;4926;42.670;23.316;2022-10-26T03:06:19;6.68;;;4.70;;
9773;SDS011;4926;42.670;23.316;2022-10-26T03:08:47;10.52;;;5.25;;
9773;SDS011;4926;42.670;23.316;2022-10-26T03:11:14;9.25;;;4.75;;
9773;SDS011;4926;42.670;23.316;2022-10-26T03:13:41;12.35;;;7.30;;
9773;SDS011;4926;42.670;23.316;2022-10-26T03:16:10;12.57;;;8.27;;
9773;SDS011;4926;42.670;23.316;2022-10-26T03:18:40;9.82;;;6.03;;
9773;SDS011;4926;42.670;23.316;2022-10-26T03:21:12;8.43;;;6.28;;
9773;SDS011;4926;42.670;23.316;2022-10-26T03:23:38;11.15;;;6.22;;
9773;SDS011;4926;42.670;23.316;2022-10-26T03:26:07;10.35;;;5.78;;
9773;SDS011;4926;42.670;23.316;2022-10-26T03:28:37;9.18;;;5.70;;
9773;SDS011;4926;42.670;23.316;2022-10-26T03:31:04;12.63;;;5.72;;
9773;SDS011;4926;42.670;23.316;2022-10-26T03:33:33;10.70;;;6.07;;
9773;SDS011;4926;42.670;23.316;2022-10-26T03:36:03;8.43;;;5.60;;
9773;SDS011;4926;42.670;23.316;2022-10-26T03:38:31;9.30;;;5.93;;
9773;SDS011;4926;42.670;23.316;2022-10-26T03:40:58;10.90;;;6.72;;
9773;SDS011;4926;42.670;23.316;2022-10-26T03:43:24;13.48;;;6.55;;
9773;SDS011;4926;42.670;23.316;2022-10-26T03:45:51;10.32;;;6.63;;
9773;SDS011;4926;42.670;23.316;2022-10-26T03:48:19;8.48;;;6.15;;
9773;SDS011;4926;42.670;23.316;2022-10-26T03:53:34;10.18;;;6.60;;
9773;SDS011;4926;42.670;23.316;2022-10-26T03:56:00;11.77;;;6.20;;
9773;SDS011;4926;42.670;23.316;2022-10-26T03:58:27;13.18;;;6.95;;
9773;SDS011;4926;42.670;23.316;2022-10-26T04:00:54;11.68;;;6.63;;
9773;SDS011;4926;42.670;23.316;2022-10-26T04:03:21;8.60;;;6.25;;
9773;SDS011;4926;42.670;23.316;2022-10-26T04:05:47;11.07;;;6.70;;
9773;SDS011;4926;42.670;23.316;2022-10-26T04:08:17;8.55;;;6.40;;
9773;SDS011;4926;42.670;23.316;2022-10-26T04:10:45;12.52;;;6.45;;
9773;SDS011;4926;42.670;23.316;2022-10-26T04:13:12;10.70;;;6.13;;
9773;SDS011;4926;42.670;23.316;2022-10-26T04:15:39;10.52;;;5.97;;
9773;SDS011;4926;42.670;23.316;2022-10-26T04:18:07;10.73;;;7.10;;
9773;SDS011;4926;42.670;23.316;2022-10-26T04:20:39;9.32;;;6.20;;
9773;SDS011;4926;42.670;23.316;2022-10-26T04:23:08;9.32;;;6.22;;
9773;SDS011;4926;42.670;23.316;2022-10-26T04:25:37;9.13;;;5.93;;
9773;SDS011;4926;42.670;23.316;2022-10-26T04:28:10;9.52;;;6.13;;
9773;SDS011;4926;42.670;23.316;2022-10-26T04:30:38;10.20;;;5.57;;
9773;SDS011;4926;42.670;23.316;2022-10-26T04:33:05;9.10;;;5.57;;
9773;SDS011;4926;42.670;23.316;2022-10-26T04:35:36;8.98;;;5.82;;
9773;SDS011;4926;42.670;23.316;2022-10-26T04:38:04;7.88;;;5.25;;
9773;SDS011;4926;42.670;23.316;2022-10-26T04:40:33;10.50;;;5.82;;
9773;SDS011;4926;42.670;23.316;2022-10-26T04:43:00;9.85;;;6.07;;
9773;SDS011;4926;42.670;23.316;2022-10-26T04:45:28;12.90;;;5.72;;
9773;SDS011;4926;42.670;23.316;2022-10-26T04:47:59;7.45;;;5.90;;
9773;SDS011;4926;42.670;23.316;2022-10-26T04:50:28;9.93;;;5.40;;
9773;SDS011;4926;42.670;23.316;2022-10-26T04:52:54;8.35;;;5.22;;
9773;SDS011;4926;42.670;23.316;2022-10-26T04:55:21;9.65;;;5.80;;
9773;SDS011;4926;42.670;23.316;2022-10-26T04:57:51;8.85;;;5.63;;
9773;SDS011;4926;42.670;23.316;2022-10-26T05:00:19;8.90;;;5.15;;
9773;SDS011;4926;42.670;23.316;2022-10-26T05:02:47;10.65;;;5.53;;
9773;SDS011;4926;42.670;23.316;2022-10-26T05:05:17;9.35;;;5.90;;
9773;SDS011;4926;42.670;23.316;2022-10-26T05:07:46;8.50;;;5.47;;
9773;SDS011;4926;42.670;23.316;2022-10-26T05:10:19;9.23;;;5.88;;
9773;SDS011;4926;42.670;23.316;2022-10-26T05:12:49;9.25;;;5.88;;
9773;SDS011;4926;42.670;23.316;2022-10-26T05:15:16;12.00;;;6.18;;
9773;SDS011;4926;42.670;23.316;2022-10-26T05:17:43;10.25;;;5.47;;
9773;SDS011;4926;42.670;23.316;2022-10-26T05:20:11;8.13;;;5.63;;
9773;SDS011;4926;42.670;23.316;2022-10-26T05:22:38;8.27;;;6.05;;
9773;SDS011;4926;42.670;23.316;2022-10-26T05:25:05;10.63;;;6.95;;
9773;SDS011;4926;42.670;23.316;2022-10-26T05:27:38;9.38;;;6.25;;
9773;SDS011;4926;42.670;23.316;2022-10-26T05:30:05;11.48;;;6.57;;
9773;SDS011;4926;42.670;23.316;2022-10-26T05:32:33;10.63;;;6.30;;
9773;SDS011;4926;42.670;23.316;2022-10-26T05:35:00;14.27;;;6.50;;
9773;SDS011;4926;42.670;23.316;2022-10-26T05:37:28;12.25;;;6.63;;
9773;SDS011;4926;42.670;23.316;2022-10-26T05:39:55;7.55;;;5.30;;
9773;SDS011;4926;42.670;23.316;2022-10-26T05:42:21;9.30;;;5.80;;
9773;SDS011;4926;42.670;23.316;2022-10-26T05:44:49;7.13;;;5.93;;
9773;SDS011;4926;42.670;23.316;2022-10-26T05:47:16;7.97;;;5.82;;
9773;SDS011;4926;42.670;23.316;2022-10-26T05:49:43;9.25;;;5.20;;
9773;SDS011;4926;42.670;23.316;2022-10-26T05:52:09;10.27;;;5.63;;
9773;SDS011;4926;42.670;23.316;2022-10-26T05:54:37;11.98;;;9.07;;
9773;SDS011;4926;42.670;23.316;2022-10-26T05:57:04;9.57;;;5.85;;
9773;SDS011;4926;42.670;23.316;2022-10-26T05:59:35;7.97;;;5.82;;
9773;SDS011;4926;42.670;23.316;2022-10-26T06:02:05;10.02;;;5.90;;
9773;SDS011;4926;42.670;23.316;2022-10-26T06:04:43;9.25;;;5.57;;
9773;SDS011;4926;42.670;23.316;2022-10-26T06:07:16;10.07;;;6.20;;
9773;SDS011;4926;42.670;23.316;2022-10-26T06:09:47;9.38;;;6.00;;
9773;SDS011;4926;42.670;23.316;2022-10-26T06:12:14;9.57;;;6.13;;
9773;SDS011;4926;42.670;23.316;2022-10-26T06:14:42;10.68;;;5.80;;
9773;SDS011;4926;42.670;23.316;2022-10-26T06:20:17;7.85;;;6.20;;
9773;SDS011;4926;42.670;23.316;2022-10-26T06:23:05;8.32;;;5.28;;
9773;SDS011;4926;42.670;23.316;2022-10-26T06:25:45;12.80;;;6.10;;
9773;SDS011;4926;42.670;23.316;2022-10-26T06:28:22;12.73;;;6.65;;
9773;SDS011;4926;42.670;23.316;2022-10-26T06:31:02;7.68;;;5.82;;
9773;SDS011;4926;42.670;23.316;2022-10-26T06:33:30;10.63;;;6.70;;
9773;SDS011;4926;42.670;23.316;2022-10-26T06:35:58;11.38;;;6.15;;
9773;SDS011;4926;42.670;23.316;2022-10-26T06:38:35;10.00;;;6.32;;
9773;SDS011;4926;42.670;23.316;2022-10-26T06:41:12;9.85;;;6.75;;
9773;SDS011;4926;42.670;23.316;2022-10-26T06:43:43;7.93;;;5.72;;
9773;SDS011;4926;42.670;23.316;2022-10-26T06:46:12;8.70;;;6.20;;
9773;SDS011;4926;42.670;23.316;2022-10-26T06:48:59;10.13;;;6.30;;
9773;SDS011;4926;42.670;23.316;2022-10-26T06:51:32;13.90;;;6.30;;
9773;SDS011;4926;42.670;23.316;2022-10-26T06:54:07;9.02;;;5.55;;
9773;SDS011;4926;42.670;23.316;2022-10-26T06:56:42;6.25;;;5.05;;
9773;SDS011;4926;42.670;23.316;2022-10-26T06:59:13;6.18;;;5.00;;
9773;SDS011;4926;42.670;23.316;2022-10-26T07:01:43;7.95;;;5.50;;
9773;SDS011;4926;42.670;23.316;2022-10-26T07:04:12;9.60;;;5.70;;
9773;SDS011;4926;42.670;23.316;2022-10-26T07:06:38;8.73;;;5.13;;
9773;SDS011;4926;42.670;23.316;2022-10-26T07:09:05;8.07;;;4.95;;
9773;SDS011;4926;42.670;23.316;2022-10-26T07:11:32;6.30;;;4.82;;
9773;SDS011;4926;42.670;23.316;2022-10-26T07:14:00;7.80;;;4.72;;
9773;SDS011;4926;42.670;23.316;2022-10-26T07:16:27;6.25;;;4.70;;
9773;SDS011;4926;42.670;23.316;2022-10-26T07:18:53;6.30;;;4.72;;
9773;SDS011;4926;42.670;23.316;2022-10-26T07:21:26;9.07;;;4.47;;
9773;SDS011;4926;42.670;23.316;2022-10-26T07:23:53;6.95;;;4.75;;
9773;SDS011;4926;42.670;23.316;2022-10-26T07:26:24;5.05;;;4.30;;
9773;SDS011;4926;42.670;23.316;2022-10-26T07:28:51;5.20;;;4.28;;
9773;SDS011;4926;42.670;23.316;2022-10-26T07:31:20;8.18;;;4.70;;
9773;SDS011;4926;42.670;23.316;2022-10-26T07:33:46;8.35;;;4.95;;
9773;SDS011;4926;42.670;23.316;2022-10-26T07:36:13;9.15;;;4.88;;
9773;SDS011;4926;42.670;23.316;2022-10-26T07:38:40;6.85;;;4.65;;
9773;SDS011;4926;42.670;23.316;2022-10-26T07:41:06;5.82;;;4.75;;
9773;SDS011;4926;42.670;23.316;2022-10-26T07:43:33;6.70;;;4.78;;
9773;SDS011;4926;42.670;23.316;2022-10-26T07:46:00;7.00;;;4.95;;
9773;SDS011;4926;42.670;23.316;2022-10-26T07:48:28;7.32;;;5.03;;
9773;SDS011;4926;42.670;23.316;2022-10-26T07:50:55;11.95;;;5.10;;
9773;SDS011;4926;42.670;23.316;2022-10-26T07:53:21;7.78;;;4.82;;
9773;SDS011;4926;42.670;23.316;2022-10-26T07:55:53;7.25;;;5.65;;
9773;SDS011;4926;42.670;23.316;2022-10-26T07:58:20;7.63;;;4.57;;
9773;SDS011;4926;42.670;23.316;2022-10-26T08:00:52;8.30;;;5.10;;
9773;SDS011;4926;42.670;23.316;2022-10-26T08:03:20;8.13;;;5.18;;
9773;SDS011;4926;42.670;23.316;2022-10-26T08:05:50;8.43;;;4.72;;
9773;SDS011;4926;42.670;23.316;2022-10-26T08:08:19;6.72;;;4.60;;
9773;SDS011;4926;42.670;23.316;2022-10-26T08:10:47;8.02;;;4.85;;
9773;SDS011;4926;42.670;23.316;2022-10-26T08:13:13;6.78;;;4.78;;
9773;SDS011;4926;42.670;23.316;2022-10-26T08:15:40;7.80;;;5.05;;
9773;SDS011;4926;42.670;23.316;2022-10-26T08:18:09;7.78;;;5.25;;
9773;SDS011;4926;42.670;23.316;2022-10-26T08:20:36;12.35;;;5.70;;
9773;SDS011;4926;42.670;23.316;2022-10-26T08:23:07;7.22;;;4.93;;
9773;SDS011;4926;42.670;23.316;2022-10-26T08:25:33;6.25;;;4.65;;
9773;SDS011;4926;42.670;23.316;2022-10-26T08:28:00;7.63;;;4.38;;
9773;SDS011;4926;42.670;23.316;2022-10-26T08:30:28;8.80;;;4.20;;
9773;SDS011;4926;42.670;23.316;2022-10-26T08:32:58;8.20;;;4.82;;
9773;SDS011;4926;42.670;23.316;2022-10-26T08:35:29;9.45;;;4.90;;
9773;SDS011;4926;42.670;23.316;2022-10-26T08:37:59;7.88;;;4.63;;
9773;SDS011;4926;42.670;23.316;2022-10-26T08:40:29;8.30;;;5.05;;
9773;SDS011;4926;42.670;23.316;2022-10-26T08:43:02;7.80;;;4.72;;
9773;SDS011;4926;42.670;23.316;2022-10-26T08:45:37;6.35;;;3.95;;
9773;SDS011;4926;42.670;23.316;2022-10-26T08:48:08;7.80;;;4.60;;
9773;SDS011;4926;42.670;23.316;2022-10-26T08:50:42;7.20;;;3.95;;
9773;SDS011;4926;42.670;23.316;2022-10-26T08:53:14;5.28;;;4.15;;
9773;SDS011;4926;42.670;23.316;2022-10-26T08:55:47;8.10;;;4.13;;
9773;SDS011;4926;42.670;23.316;2022-10-26T08:58:22;6.47;;;3.72;;
9773;SDS011;4926;42.670;23.316;2022-10-26T09:00:53;5.65;;;3.97;;
9773;SDS011;4926;42.670;23.316;2022-10-26T09:03:20;3.92;;;3.50;;
9773;SDS011;4926;42.670;23.316;2022-10-26T09:08:41;5.32;;;3.85;;
9773;SDS011;4926;42.670;23.316;2022-10-26T09:11:30;7.47;;;3.50;;
9773;SDS011;4926;42.670;23.316;2022-10-26T09:14:17;5.97;;;3.08;;
9773;SDS011;4926;42.670;23.316;2022-10-26T09:16:50;5.45;;;3.28;;
9773;SDS011;4926;42.670;23.316;2022-10-26T09:19:36;6.20;;;3.65;;
9773;SDS011;4926;42.670;23.316;2022-10-26T09:22:25;5.18;;;3.40;;
9773;SDS011;4926;42.670;23.316;2022-10-26T09:25:02;4.13;;;3.17;;
9773;SDS011;4926;42.670;23.316;2022-10-26T09:27:43;5.70;;;3.33;;
9773;SDS011;4926;42.670;23.316;2022-10-26T09:30:13;8.32;;;3.58;;
9773;SDS011;4926;42.670;23.316;2022-10-26T09:32:45;7.00;;;3.75;;
9773;SDS011;4926;42.670;23.316;2022-10-26T09:35:14;6.30;;;3.20;;
9773;SDS011;4926;42.670;23.316;2022-10-26T09:37:46;4.25;;;3.10;;
9773;SDS011;4926;42.670;23.316;2022-10-26T09:40:17;4.38;;;3.13;;
9773;SDS011;4926;42.670;23.316;2022-10-26T09:42:53;9.38;;;3.50;;
9773;SDS011;4926;42.670;23.316;2022-10-26T09:45:27;3.85;;;3.00;;
9773;SDS011;4926;42.670;23.316;2022-10-26T09:47:58;8.13;;;2.67;;
9773;SDS011;4926;42.670;23.316;2022-10-26T09:50:32;3.35;;;2.13;;
9773;SDS011;4926;42.670;23.316;2022-10-26T09:53:00;4.05;;;2.45;;
9773;SDS011;4926;42.670;23.316;2022-10-26T09:55:38;4.13;;;2.33;;
9773;SDS011;4926;42.670;23.316;2022-10-26T09:58:10;4.47;;;2.45;;
9773;SDS011;4926;42.670;23.316;2022-10-26T10:00:45;3.25;;;2.28;;
9773;SDS011;4926;42.670;23.316;2022-10-26T10:03:17;4.75;;;2.53;;
9773;SDS011;4926;42.670;23.316;2022-10-26T10:05:44;2.90;;;2.08;;
9773;SDS011;4926;42.670;23.316;2022-10-26T10:08:15;2.80;;;2.05;;
9773;SDS011;4926;42.670;23.316;2022-10-26T10:10:53;3.38;;;2.05;;
9773;SDS011;4926;42.670;23.316;2022-10-26T10:13:26;4.25;;;2.10;;
9773;SDS011;4926;42.670;23.316;2022-10-26T10:16:02;5.90;;;2.40;;
9773;SDS011;4926;42.670;23.316;2022-10-26T10:18:31;2.75;;;2.20;;
9773;SDS011;4926;42.670;23.316;2022-10-26T10:20:59;3.92;;;2.20;;
9773;SDS011;4926;42.670;23.316;2022-10-26T10:23:28;3.70;;;2.08;;
9773;SDS011;4926;42.670;23.316;2022-10-26T10:25:57;3.92;;;2.20;;
9773;SDS011;4926;42.670;23.316;2022-10-26T10:28:27;6.03;;;2.53;;
9773;SDS011;4926;42.670;23.316;2022-10-26T10:30:54;4.55;;;2.50;;
9773;SDS011;4926;42.670;23.316;2022-10-26T10:33:30;3.42;;;2.00;;
9773;SDS011;4926;42.670;23.316;2022-10-26T10:36:03;2.08;;;1.88;;
9773;SDS011;4926;42.670;23.316;2022-10-26T10:38:35;5.28;;;2.45;;
9773;SDS011;4926;42.670;23.316;2022-10-26T10:41:04;5.85;;;2.40;;
9773;SDS011;4926;42.670;23.316;2022-10-26T10:43:43;3.92;;;2.38;;
9773;SDS011;4926;42.670;23.316;2022-10-26T10:46:16;4.55;;;2.50;;
9773;SDS011;4926;42.670;23.316;2022-10-26T10:48:45;4.80;;;2.97;;
9773;SDS011;4926;42.670;23.316;2022-10-26T10:51:17;6.32;;;2.80;;
9773;SDS011;4926;42.670;23.316;2022-10-26T10:53:48;3.03;;;2.30;;
9773;SDS011;4926;42.670;23.316;2022-10-26T10:56:26;8.13;;;3.10;;
9773;SDS011;4926;42.670;23.316;2022-10-26T11:02:11;3.90;;;2.63;;
9773;SDS011;4926;42.670;23.316;2022-10-26T11:05:10;7.50;;;2.50;;
9773;SDS011;4926;42.670;23.316;2022-10-26T11:07:52;6.43;;;2.83;;
9773;SDS011;4926;42.670;23.316;2022-10-26T11:10:32;4.25;;;2.92;;
9773;SDS011;4926;42.670;23.316;2022-10-26T11:13:03;4.57;;;3.55;;
9773;SDS011;4926;42.670;23.316;2022-10-26T11:15:38;5.60;;;3.30;;
9773;SDS011;4926;42.670;23.316;2022-10-26T11:18:11;4.72;;;2.83;;
9773;SDS011;4926;42.670;23.316;2022-10-26T11:20:43;6.45;;;2.55;;
9773;SDS011;4926;42.670;23.316;2022-10-26T11:23:15;3.67;;;2.20;;
9773;SDS011;4926;42.670;23.316;2022-10-26T11:25:48;3.15;;;2.17;;
9773;SDS011;4926;42.670;23.316;2022-10-26T11:28:19;2.67;;;2.13;;
9773;SDS011;4926;42.670;23.316;2022-10-26T11:31:00;3.28;;;1.98;;
9773;SDS011;4926;42.670;23.316;2022-10-26T11:33:41;3.58;;;2.05;;
9773;SDS011;4926;42.670;23.316;2022-10-26T11:36:14;2.97;;;2.10;;
9773;SDS011;4926;42.670;23.316;2022-10-26T11:38:47;3.88;;;2.30;;
9773;SDS011;4926;42.670;23.316;2022-10-26T11:41:18;2.33;;;1.70;;
9773;SDS011;4926;42.670;23.316;2022-10-26T11:43:52;3.40;;;2.30;;
9773;SDS011;4926;42.670;23.316;2022-10-26T11:46:27;2.85;;;2.20;;
9773;SDS011;4926;42.670;23.316;2022-10-26T11:49:01;2.42;;;1.90;;
9773;SDS011;4926;42.670;23.316;2022-10-26T11:51:42;4.22;;;2.05;;
9773;SDS011;4926;42.670;23.316;2022-10-26T11:54:18;2.13;;;1.55;;
9773;SDS011;4926;42.670;23.316;2022-10-26T11:56:49;2.90;;;1.83;;
9773;SDS011;4926;42.670;23.316;2022-10-26T11:59:20;3.33;;;1.75;;
9773;SDS011;4926;42.670;23.316;2022-10-26T12:01:54;3.20;;;1.70;;
9773;SDS011;4926;42.670;23.316;2022-10-26T12:04:27;3.00;;;1.67;;
9773;SDS011;4926;42.670;23.316;2022-10-26T12:06:56;2.60;;;1.50;;
9773;SDS011;4926;42.670;23.316;2022-10-26T12:09:29;3.05;;;1.98;;
9773;SDS011;4926;42.670;23.316;2022-10-26T12:12:00;1.30;;;1.20;;
9773;SDS011;4926;42.670;23.316;2022-10-26T12:14:35;1.85;;;1.20;;
9773;SDS011;4926;42.670;23.316;2022-10-26T12:17:10;1.50;;;1.38;;
9773;SDS011;4926;42.670;23.316;2022-10-26T12:19:42;2.70;;;1.45;;
9773;SDS011;4926;42.670;23.316;2022-10-26T12:22:16;2.42;;;1.13;;
9773;SDS011;4926;42.670;23.316;2022-10-26T12:24:44;2.33;;;1.70;;
9773;SDS011;4926;42.670;23.316;2022-10-26T12:27:30;2.45;;;1.95;;
9773;SDS011;4926;42.670;23.316;2022-10-26T12:30:21;1.60;;;1.27;;
9773;SDS011;4926;42.670;23.316;2022-10-26T12:32:55;1.75;;;1.10;;
9773;SDS011;4926;42.670;23.316;2022-10-26T12:35:42;2.17;;;1.35;;
9773;SDS011;4926;42.670;23.316;2022-10-26T12:41:30;2.05;;;1.45;;
9773;SDS011;4926;42.670;23.316;2022-10-26T12:43:57;3.92;;;1.88;;
9773;SDS011;4926;42.670;23.316;2022-10-26T12:52:28;1.92;;;1.20;;
9773;SDS011;4926;42.670;23.316;2022-10-26T12:58:32;1.73;;;1.23;;
9773;SDS011;4926;42.670;23.316;2022-10-26T13:04:40;2.60;;;1.30;;
9773;SDS011;4926;42.670;23.316;2022-10-26T13:07:18;2.05;;;1.27;;
9773;SDS011;4926;42.670;23.316;2022-10-26T13:09:54;2.47;;;1.13;;
9773;SDS011;4926;42.670;23.316;2022-10-26T13:12:26;2.88;;;1.20;;
9773;SDS011;4926;42.670;23.316;2022-10-26T13:15:03;1.25;;;1.15;;
9773;SDS011;4926;42.670;23.316;2022-10-26T13:17:33;2.35;;;1.60;;
9773;SDS011;4926;42.670;23.316;2022-10-26T13:20:00;1.40;;;1.30;;
9773;SDS011;4926;42.670;23.316;2022-10-26T13:22:30;1.30;;;1.20;;
9773;SDS011;4926;42.670;23.316;2022-10-26T13:25:00;1.52;;;1.13;;
9773;SDS011;4926;42.670;23.316;2022-10-26T13:27:40;2.90;;;1.40;;
9773;SDS011;4926;42.670;23.316;2022-10-26T13:30:15;2.13;;;1.20;;
9773;SDS011;4926;42.670;23.316;2022-10-26T13:32:47;2.00;;;1.40;;
9773;SDS011;4926;42.670;23.316;2022-10-26T13:35:17;1.95;;;1.33;;
9773;SDS011;4926;42.670;23.316;2022-10-26T13:37:47;2.88;;;1.02;;
9773;SDS011;4926;42.670;23.316;2022-10-26T13:40:17;3.20;;;1.40;;
9773;SDS011;4926;42.670;23.316;2022-10-26T13:42:47;3.40;;;1.40;;
9773;SDS011;4926;42.670;23.316;2022-10-26T13:45:19;2.60;;;1.70;;
9773;SDS011;4926;42.670;23.316;2022-10-26T13:47:48;3.42;;;1.70;;
9773;SDS011;4926;42.670;23.316;2022-10-26T13:50:21;3.03;;;1.50;;
9773;SDS011;4926;42.670;23.316;2022-10-26T13:52:52;3.90;;;2.15;;
9773;SDS011;4926;42.670;23.316;2022-10-26T13:55:27;1.55;;;1.42;;
9773;SDS011;4926;42.670;23.316;2022-10-26T13:58:13;2.95;;;1.60;;
9773;SDS011;4926;42.670;23.316;2022-10-26T14:01:11;2.70;;;1.50;;
9773;SDS011;4926;42.670;23.316;2022-10-26T14:03:45;4.53;;;2.78;;
9773;SDS011;4926;42.670;23.316;2022-10-26T14:06:14;3.83;;;1.52;;
9773;SDS011;4926;42.670;23.316;2022-10-26T14:08:45;1.67;;;1.30;;
9773;SDS011;4926;42.670;23.316;2022-10-26T14:11:30;3.55;;;1.48;;
9773;SDS011;4926;42.670;23.316;2022-10-26T14:14:01;4.65;;;1.50;;
9773;SDS011;4926;42.670;23.316;2022-10-26T14:16:29;3.05;;;1.52;;
9773;SDS011;4926;42.670;23.316;2022-10-26T14:18:59;3.78;;;1.75;;
9773;SDS011;4926;42.670;23.316;2022-10-26T14:21:31;2.50;;;1.67;;
9773;SDS011;4926;42.670;23.316;2022-10-26T14:23:58;1.67;;;1.40;;
9773;SDS011;4926;42.670;23.316;2022-10-26T14:26:38;4.03;;;2.05;;
9773;SDS011;4926;42.670;23.316;2022-10-26T14:29:13;4.80;;;1.90;;
9773;SDS011;4926;42.670;23.316;2022-10-26T14:31:42;5.07;;;1.90;;
9773;SDS011;4926;42.670;23.316;2022-10-26T14:34:10;3.17;;;1.80;;
9773;SDS011;4926;42.670;23.316;2022-10-26T14:36:41;4.68;;;2.80;;
9773;SDS011;4926;42.670;23.316;2022-10-26T14:39:15;4.25;;;2.17;;
9773;SDS011;4926;42.670;23.316;2022-10-26T14:41:48;2.33;;;2.00;;
9773;SDS011;4926;42.670;23.316;2022-10-26T14:44:18;7.30;;;2.42;;
9773;SDS011;4926;42.670;23.316;2022-10-26T14:46:48;2.67;;;2.00;;
9773;SDS011;4926;42.670;23.316;2022-10-26T14:49:16;6.65;;;2.22;;
9773;SDS011;4926;42.670;23.316;2022-10-26T14:51:54;6.72;;;2.67;;
9773;SDS011;4926;42.670;23.316;2022-10-26T14:54:24;4.30;;;2.53;;
9773;SDS011;4926;42.670;23.316;2022-10-26T14:56:58;4.18;;;2.50;;
9773;SDS011;4926;42.670;23.316;2022-10-26T14:59:27;6.22;;;3.20;;
9773;SDS011;4926;42.670;23.316;2022-10-26T15:01:58;6.00;;;2.60;;
9773;SDS011;4926;42.670;23.316;2022-10-26T15:04:31;8.35;;;3.20;;
9773;SDS011;4926;42.670;23.316;2022-10-26T15:07:14;3.05;;;2.53;;
9773;SDS011;4926;42.670;23.316;2022-10-26T15:09:43;4.07;;;2.50;;
9773;SDS011;4926;42.670;23.316;2022-10-26T15:14:59;5.53;;;2.78;;
9773;SDS011;4926;42.670;23.316;2022-10-26T15:17:36;4.65;;;3.03;;
9773;SDS011;4926;42.670;23.316;2022-10-26T15:20:06;4.63;;;2.33;;
9773;SDS011;4926;42.670;23.316;2022-10-26T15:22:41;5.70;;;2.28;;
9773;SDS011;4926;42.670;23.316;2022-10-26T15:25:15;6.57;;;2.90;;
9773;SDS011;4926;42.670;23.316;2022-10-26T15:27:48;7.55;;;3.83;;
9773;SDS011;4926;42.670;23.316;2022-10-26T15:30:17;6.38;;;4.50;;
9773;SDS011;4926;42.670;23.316;2022-10-26T15:32:49;5.25;;;2.83;;
9773;SDS011;4926;42.670;23.316;2022-10-26T15:35:22;5.30;;;2.90;;
9773;SDS011;4926;42.670;23.316;2022-10-26T15:37:52;16.17;;;4.32;;
9773;SDS011;4926;42.670;23.316;2022-10-26T15:40:20;9.88;;;3.25;;
9773;SDS011;4926;42.670;23.316;2022-10-26T15:42:50;5.53;;;3.33;;
9773;SDS011;4926;42.670;23.316;2022-10-26T15:45:18;5.53;;;2.95;;
9773;SDS011;4926;42.670;23.316;2022-10-26T15:47:47;5.20;;;2.70;;
9773;SDS011;4926;42.670;23.316;2022-10-26T15:50:16;7.05;;;3.08;;
9773;SDS011;4926;42.670;23.316;2022-10-26T15:52:45;5.47;;;3.05;;
9773;SDS011;4926;42.670;23.316;2022-10-26T15:55:12;5.25;;;2.85;;
9773;SDS011;4926;42.670;23.316;2022-10-26T15:57:39;6.78;;;2.95;;
9773;SDS011;4926;42.670;23.316;2022-10-26T16:00:09;4.78;;;2.95;;
9773;SDS011;4926;42.670;23.316;2022-10-26T16:02:42;5.85;;;2.90;;
9773;SDS011;4926;42.670;23.316;2022-10-26T16:05:10;5.28;;;2.45;;